Covington, MI (49919)

9:26 PM EDT on July 31, 2014 (GMT -0400)
Kings Land O'Lakes (KLNL) Elev 1706 ft | 46.15 °N, 89.21 °W | Change Station

Current weather conditions updated 11 minutes ago

Clear
Clear
61 °F
Feels Like 61 °F
N
0
Wind Variable Wind from North

Tomorrow is forecast to be nearly the same temperature as today.

Today
High -- | Low -- °F
--% Chance of Precip.
Yesterday
High -- | Low -- °F
Precip. -- in
6:33 AM 9:26 PM
Waxing Crescent, 22% visible
Pressure 30.01 in
Visibility 10.0 miles
Clouds Clear
Dew Point 56 °F
Humidity 84%
Rainfall 0.00 in
Snow Depth Not available.
UV 0 out of 12
Pollen 7.50 out of 12
Air Quality Not available.
Flu Activity Not available.
METAR KLNL 010115Z AUTO 00000KT 10SM CLR 16/13 A3001 RMK AO2 T01610134

More Conditions Fewer Conditions

Pressure 30.01 in
Visibility 10.0 miles
Clouds Clear
Dew Point 56 °F
Humidity 84%
Rainfall 0.00 in
Snow Depth Not available.
UV 0 out of 12
Pollen 7.50 out of 12
Air Quality Not available.
Flu Activity Not available.
METAR KLNL 010115Z AUTO 00000KT 10SM CLR 16/13 A3001 RMK AO2 T01610134

More Conditions Fewer Conditions

10-Day Weather Forecast

Almanac

Astronomy

Jul. 31, 2014 Rise Set
Actual Time 6:33 AM EDT 9:26 PM EDT
Civil Twilight 5:58 AM EDT 10:01 PM EDT
Nautical Twilight 5:13 AM EDT 10:46 PM EDT
Astronomical Twilight 4:19 AM EDT 11:39 PM EDT
Moon 11:20 AM EDT (7/31) 11:18 PM EDT (7/31)
Length of Visible Light 16h 03m
Length of Day
14h 52m
Tomorrow will be 2m 32s shorter.
Waxing Crescent, 22% of the Moon is Illuminated
Today
Waxing Crescent
Aug 3
First Quarter
Aug 10
Full
Aug 17
Last Quarter
Aug 25
New

Today's Extremes

State Highs State Lows

Community

WunderPhotos

Upload Photos

1,739,477 photos uploaded!

Nearby

Snow Depth

Station Depth Elevation
No new snow has been reported.

Earthquake Activity

City Distance Mag. Time & Date
No recent earthquake activity has been reported nearby.
Minimum magnitude displayed is 2.5.

Coastal Water Temperatures

Place Temperature
No Stations Reporting

Nearby Weather Stations

Station Location Temp. Heat Index Dew Point Humidity Wind Precip. Elev Updated Type
RAWS KENTON MI, Nisula, MI 72 °F 77 °F 53 °F 51% NNW  at  2 mph 0.00 in / hr 1262 ft 7:56 PM EDT MADIS

Show More Stations Show Fewer Stations